Time;durP1;ratioP1;P1;durP2;ratioP2;P2;SDS_P1;SDS_P2;PMS_P1;PMS_P2;Temp;Humidity;BMP_temperature;BMP_pressure;BME280_temperature;BME280_humidity;BME280_pressure;Samples;Min_cycle;Max_cycle;Signal;HPM_P1;HPM_P2
2021/11/23 00:00:33;;;;;;;13.82;7.75;;;;;;;;;;4974145;28;20038;-65
2021/11/23 00:02:59;;;;;;;17.33;8.25;;;;;;;;;;4975751;28;20061;-65
2021/11/23 00:05:29;;;;;;;17.00;8.65;;;;;;;;;;4975979;28;20034;-65
2021/11/23 00:07:55;;;;;;;19.80;8.68;;;;;;;;;;4972826;28;20034;-65
2021/11/23 00:10:21;;;;;;;18.60;8.57;;;;;;;;;;4976190;28;20604;-64
2021/11/23 00:12:47;;;;;;;22.83;9.63;;;;;;;;;;4975343;28;20829;-65
2021/11/23 00:15:14;;;;;;;19.38;10.20;;;;;;;;;;4954168;28;20061;-65
2021/11/23 00:17:40;;;;;;;25.42;11.10;;;1.20;99.90;;;;;;4974573;28;20045;-65
2021/11/23 00:20:06;;;;;;;21.33;10.40;;;;;;;;;;4975198;28;20026;-65
2021/11/23 00:22:32;;;;;;;25.38;10.73;;;;;;;;;;4975085;28;20042;-65
2021/11/23 00:24:58;;;;;;;24.00;10.18;;;;;;;;;;4975405;28;20069;-65
2021/11/23 00:27:24;;;;;;;21.02;10.27;;;;;;;;;;4974129;28;20060;-65
2021/11/23 00:29:50;;;;;;;21.98;10.93;;;;;;;;;;4974843;28;20044;-65
2021/11/23 00:32:16;;;;;;;24.13;11.35;;;1.30;99.90;;;;;;4974073;28;20516;-65
2021/11/23 00:34:42;;;;;;;22.90;11.65;;;1.10;99.90;;;;;;4974883;28;20141;-65
2021/11/23 00:37:07;;;;;;;28.83;12.00;;;1.50;99.90;;;;;;4973349;28;20066;-65
2021/11/23 00:39:33;;;;;;;29.45;12.55;;;1.30;99.90;;;;;;4956212;28;20175;-65
2021/11/23 00:41:58;;;;;;;26.40;12.95;;;1.30;99.90;;;;;;4973357;28;20030;-65
2021/11/23 00:44:24;;;;;;;26.33;13.32;;;1.40;99.90;;;;;;4974984;28;20042;-65
2021/11/23 00:46:50;;;;;;;27.20;13.02;;;1.30;99.90;;;;;;4974576;28;20062;-65
2021/11/23 00:49:15;;;;;;;25.80;12.60;;;1.50;99.90;;;;;;4974946;28;20122;-65
2021/11/23 00:51:41;;;;;;;27.25;12.57;;;4.30;99.90;;;;;;4957313;28;20058;-65
2021/11/23 00:54:07;;;;;;;27.48;12.40;;;;;;;;;;4974845;28;20402;-65
2021/11/23 00:56:33;;;;;;;21.15;12.35;;;1.30;99.90;;;;;;4974321;28;20026;-65
2021/11/23 00:58:59;;;;;;;22.58;12.52;;;;;;;;;;4974260;28;20056;-65
2021/11/23 01:01:24;;;;;;;23.27;13.20;;;1.40;99.90;;;;;;4973889;28;20087;-65
2021/11/23 01:03:50;;;;;;;24.92;12.88;;;1.20;99.90;;;;;;4974315;28;20034;-65
2021/11/23 01:06:15;;;;;;;32.63;13.88;;;1.10;99.90;;;;;;4974634;28;20031;-65
2021/11/23 01:08:41;;;;;;;26.42;12.77;;;;;;;;;;4976367;28;20061;-65
2021/11/23 01:11:07;;;;;;;24.30;13.05;;;;;;;;;;4977587;28;20030;-65
2021/11/23 01:13:33;;;;;;;27.33;13.77;;;-2.20;99.90;;;;;;4978296;28;20056;-65
2021/11/23 01:15:59;;;;;;;29.80;14.43;;;1.00;99.90;;;;;;4977784;28;20137;-65
2021/11/23 01:18:24;;;;;;;27.63;13.48;;;1.30;99.90;;;;;;4978518;28;20033;-65
2021/11/23 01:20:50;;;;;;;29.98;13.68;;;1.50;99.90;;;;;;4979320;28;20035;-65
2021/11/23 01:23:16;;;;;;;26.02;14.35;;;1.50;99.90;;;;;;4979098;28;20075;-66
2021/11/23 01:25:41;;;;;;;27.33;13.82;;;1.40;99.90;;;;;;4980620;28;20428;-65
2021/11/23 01:28:07;;;;;;;30.65;14.07;;;;;;;;;;4980405;28;20945;-65
2021/11/23 01:30:33;;;;;;;33.50;14.65;;;;;;;;;;4980048;28;20470;-66
2021/11/23 01:33:00;;;;;;;34.85;14.45;;;;;;;;;;4980175;28;20057;-65
2021/11/23 01:35:27;;;;;;;25.70;14.15;;;;;;;;;;4979789;28;20039;-65
2021/11/23 01:37:55;;;;;;;30.60;14.40;;;;;;;;;;4978229;28;20038;-65
2021/11/23 01:40:21;;;;;;;33.17;16.25;;;;;;;;;;4977233;28;20046;-65
2021/11/23 01:42:49;;;;;;;30.25;14.50;;;;;;;;;;4976771;28;20034;-65
2021/11/23 01:45:14;;;;;;;30.90;14.50;;;1.30;99.90;;;;;;4977179;28;20026;-65
2021/11/23 01:47:40;;;;;;;33.22;15.70;;;;;;;;;;4976564;28;20810;-65
2021/11/23 01:50:06;;;;;;;31.08;15.50;;;1.30;99.90;;;;;;4977350;28;20068;-65
2021/11/23 01:52:32;;;;;;;30.45;14.68;;;1.30;99.90;;;;;;4941377;28;20038;-65
2021/11/23 01:54:57;;;;;;;31.58;15.90;;;1.40;99.90;;;;;;4976666;28;20070;-65
2021/11/23 01:57:23;;;;;;;31.40;15.05;;;1.50;99.90;;;;;;4960044;28;20119;-65
2021/11/23 01:59:49;;;;;;;35.95;16.33;;;;;;;;;;4977619;28;20034;-65
2021/11/23 02:02:15;;;;;;;30.45;16.40;;;;;;;;;;4979118;28;20064;-65
2021/11/23 02:04:41;;;;;;;33.47;17.92;;;1.50;99.90;;;;;;4979206;28;20045;-65
2021/11/23 02:07:06;;;;;;;33.13;17.17;;;1.60;99.90;;;;;;4978060;28;20034;-65
2021/11/23 02:09:33;;;;;;;34.10;19.17;;;1.60;99.90;;;;;;4978666;28;20045;-65
2021/11/23 02:11:58;;;;;;;30.70;16.70;;;1.70;99.90;;;;;;4978976;28;20123;-65
2021/11/23 02:14:26;;;;;;;29.50;16.20;;;1.70;99.90;;;;;;4978580;28;20034;-65
2021/11/23 02:16:52;;;;;;;34.95;16.45;;;1.90;99.90;;;;;;4978603;28;20129;-65
2021/11/23 02:19:17;;;;;;;30.52;15.70;;;1.80;99.90;;;;;;4959998;28;20065;-65
2021/11/23 02:21:43;;;;;;;33.05;15.57;;;1.80;99.90;;;;;;4978349;28;20034;-65
2021/11/23 02:24:09;;;;;;;32.30;15.45;;;1.70;99.90;;;;;;4960016;28;20045;-65
2021/11/23 02:26:35;;;;;;;30.27;15.75;;;;;;;;;;4978135;28;20137;-65
2021/11/23 02:29:00;;;;;;;33.25;16.10;;;1.90;99.90;;;;;;4977810;28;20042;-65
2021/11/23 02:31:26;;;;;;;33.20;15.43;;;1.40;99.90;;;;;;4978180;28;20026;-65
2021/11/23 02:33:51;;;;;;;33.00;16.20;;;1.70;99.90;;;;;;4978535;28;20569;-65
2021/11/23 02:36:17;;;;;;;45.38;16.65;;;2.20;99.90;;;;;;4977919;28;20062;-65
2021/11/23 02:38:46;;;;;;;32.45;15.15;;;1.50;99.90;;;;;;4977548;28;20034;-65
2021/11/23 02:41:12;;;;;;;34.22;16.13;;;1.70;99.90;;;;;;4961199;28;20769;-65
2021/11/23 02:43:38;;;;;;;35.05;15.75;;;1.90;99.90;;;;;;4977844;28;20026;-65
2021/11/23 02:46:03;;;;;;;29.88;16.20;;;1.60;99.90;;;;;;4978338;28;20031;-65
2021/11/23 02:48:29;;;;;;;33.90;16.35;;;1.80;99.90;;;;;;4977917;28;20035;-66
2021/11/23 02:51:03;;;;;;;32.88;16.92;;;1.70;99.90;;;;;;4976823;28;20154;-65
2021/11/23 02:53:29;;;;;;;45.03;17.02;;;1.80;99.90;;;;;;4976445;28;20073;-65
2021/11/23 02:55:54;;;;;;;36.65;17.88;;;1.80;99.90;;;;;;4977585;28;20168;-65
2021/11/23 02:58:20;;;;;;;39.00;18.10;;;1.90;99.90;;;;;;4976648;28;20034;-65
2021/11/23 03:00:46;;;;;;;40.22;18.38;;;1.60;99.90;;;;;;4960035;28;20034;-65
2021/11/23 03:03:12;;;;;;;34.75;17.10;;;1.90;99.90;;;;;;4976838;28;20079;-65
2021/11/23 03:05:39;;;;;;;36.17;17.95;;;;;;;;;;4976642;28;20034;-65
2021/11/23 03:08:05;;;;;;;42.05;18.58;;;2.10;99.90;;;;;;4976099;28;20083;-65
2021/11/23 03:10:31;;;;;;;41.85;17.67;;;;;;;;;;4976635;28;20789;-65
2021/11/23 03:12:57;;;;;;;36.90;16.77;;;2.20;99.90;;;;;;4975921;28;20065;-65
2021/11/23 03:15:22;;;;;;;38.78;17.02;;;2.30;99.90;;;;;;4976608;28;20284;-65
2021/11/23 03:17:48;;;;;;;32.13;15.30;;;2.40;99.90;;;;;;4975824;28;20030;-65
2021/11/23 03:20:13;;;;;;;26.45;14.13;;;2.30;99.90;;;;;;4976032;28;20052;-65
2021/11/23 03:22:40;;;;;;;27.52;14.25;;;;;;;;;;4976304;28;20038;-65
2021/11/23 03:25:05;;;;;;;31.50;15.10;;;2.40;99.90;;;;;;4958858;28;20384;-65
2021/11/23 03:27:32;;;;;;;34.90;14.90;;;;;;;;;;4976079;28;20530;-65
2021/11/23 03:29:57;;;;;;;29.40;14.00;;;2.70;99.90;;;;;;4975966;28;20038;-65
2021/11/23 03:32:23;;;;;;;31.17;15.02;;;;;;;;;;4976487;28;20046;-65
2021/11/23 03:34:50;;;;;;;43.15;14.95;;;;;;;;;;4976342;28;20034;-65
2021/11/23 03:37:16;;;;;;;28.85;13.18;;;2.60;99.90;;;;;;4958886;28;20042;-65
2021/11/23 03:39:42;;;;;;;83.22;17.92;;;;;;;;;;4977177;28;20041;-65
2021/11/23 03:42:08;;;;;;;79.45;16.90;;;;;;;;;;4959507;28;20036;-65
2021/11/23 03:44:34;;;;;;;68.07;16.70;;;;;;;;;;4976426;28;20138;-66
2021/11/23 03:47:00;;;;;;;31.08;12.45;;;2.90;99.90;;;;;;4976349;28;20035;-65
2021/11/23 03:49:26;;;;;;;38.13;13.55;;;;;;;;;;4978567;28;20044;-65
2021/11/23 03:51:52;;;;;;;39.42;12.98;;;;;;;;;;4976331;28;20046;-66
2021/11/23 03:54:18;;;;;;;56.13;15.30;;;;;;;;;;4976625;28;20286;-65
2021/11/23 03:56:44;;;;;;;36.60;13.73;;;;;;;;;;4977046;28;20030;-65
2021/11/23 03:59:10;;;;;;;23.40;11.65;;;;;;;;;;4976181;28;20042;-65
2021/11/23 04:01:36;;;;;;;29.52;13.20;;;;;;;;;;4976255;28;20079;-65
2021/11/23 04:04:02;;;;;;;32.10;12.68;;;;;;;;;;4976937;28;20768;-66
2021/11/23 04:06:28;;;;;;;32.42;12.48;;;;;;;;;;4958799;28;20034;-65
2021/11/23 04:08:54;;;;;;;23.95;12.13;;;3.30;99.90;;;;;;4976293;28;20027;-65
2021/11/23 04:11:20;;;;;;;32.03;13.07;;;;;;;;;;4976804;28;20576;-65
2021/11/23 04:13:46;;;;;;;36.70;12.50;;;;;;;;;;4976250;28;20598;-65
2021/11/23 04:16:12;;;;;;;40.35;13.88;;;;;;;;;;4977222;28;20480;-65
2021/11/23 04:18:39;;;;;;;27.85;13.13;;;;;;;;;;4976516;28;20065;-65
2021/11/23 04:21:05;;;;;;;35.70;13.77;;;;;;;;;;4975859;28;20134;-65
2021/11/23 04:23:31;;;;;;;71.45;17.35;;;;;;;;;;4974762;28;20383;-65
2021/11/23 04:25:57;;;;;;;83.20;16.98;;;;;;;;;;4976891;28;20030;-65
2021/11/23 04:28:23;;;;;;;31.83;13.15;;;3.80;99.90;;;;;;4973202;28;20031;-65
2021/11/23 04:30:49;;;;;;;39.17;14.65;;;;;;;;;;4976986;28;20817;-65
2021/11/23 04:33:16;;;;;;;28.75;12.45;;;;;;;;;;4976164;28;20622;-64
2021/11/23 04:35:43;;;;;;;38.47;13.23;;;;;;;;;;4958944;28;20046;-65
2021/11/23 04:38:09;;;;;;;44.80;14.98;;;;;;;;;;4976199;28;20141;-64
2021/11/23 04:40:35;;;;;;;63.58;15.60;;;;;;;;;;4976056;28;20031;-64
2021/11/23 04:43:02;;;;;;;68.40;17.33;;;;;;;;;;4976120;28;20030;-64
2021/11/23 04:45:27;;;;;;;36.08;15.00;;;3.60;99.90;;;;;;4975281;28;20103;-64
2021/11/23 04:47:54;;;;;;;57.30;15.70;;;;;;;;;;4942235;28;20027;-64
2021/11/23 04:50:19;;;;;;;59.15;16.45;;;3.70;99.90;;;;;;4974974;28;20498;-64
2021/11/23 04:52:45;;;;;;;80.22;18.13;;;;;;;;;;4973927;28;20087;-64
2021/11/23 04:55:11;;;;;;;38.75;14.77;;;3.80;99.90;;;;;;4975369;28;20704;-64
2021/11/23 04:57:37;;;;;;;49.30;15.23;;;;;;;;;;4974181;28;20026;-64
2021/11/23 05:00:03;;;;;;;50.83;15.13;;;;;;;;;;4974950;28;20119;-64
2021/11/23 05:02:29;;;;;;;55.75;16.27;;;;;;;;;;4974629;28;20030;-64
2021/11/23 05:04:55;;;;;;;44.40;15.50;;;;;;;;;;4957053;28;20129;-64
2021/11/23 05:07:21;;;;;;;44.58;15.32;;;;;;;;;;4976542;28;20056;-64
2021/11/23 05:09:47;;;;;;;56.25;17.67;;;;;;;;;;4975256;28;20117;-64
2021/11/23 05:12:13;;;;;;;75.57;20.15;;;;;;;;;;4975945;28;20114;-64
2021/11/23 05:14:39;;;;;;;84.75;19.85;;;;;;;;;;4976016;28;20667;-64
2021/11/23 05:17:05;;;;;;;76.50;18.98;;;;;;;;;;4975211;28;20040;-64
2021/11/23 05:19:31;;;;;;;52.33;17.45;;;;;;;;;;4957525;28;20042;-64
2021/11/23 05:21:57;;;;;;;44.83;16.02;;;;;;;;;;4975459;28;20037;-64
2021/11/23 05:24:23;;;;;;;57.78;18.10;;;;;;;;;;4958379;28;20532;-63
2021/11/23 05:26:49;;;;;;;59.08;17.33;;;;;;;;;;4975719;28;20038;-64
2021/11/23 05:29:16;;;;;;;46.83;16.65;;;;;;;;;;4975440;28;20812;-63
2021/11/23 05:31:42;;;;;;;51.15;17.23;;;;;;;;;;4975730;28;20042;-63
2021/11/23 05:34:08;;;;;;;48.10;17.25;;;;;;;;;;4975259;28;20038;-63
2021/11/23 05:36:34;;;;;;;46.47;17.83;;;;;;;;;;4975868;28;20034;-64
2021/11/23 05:39:01;;;;;;;52.45;18.02;;;;;;;;;;4957784;28;20583;-63
2021/11/23 05:41:27;;;;;;;84.72;22.42;;;;;;;;;;4975486;28;20575;-63
2021/11/23 05:43:54;;;;;;;78.55;21.80;;;;;;;;;;4941327;28;20684;-64
2021/11/23 05:46:20;;;;;;;79.03;22.73;;;;;;;;;;4974428;28;20033;-64
2021/11/23 05:48:46;;;;;;;69.00;21.05;;;;;;;;;;4974016;28;20070;-63
2021/11/23 05:51:12;;;;;;;87.65;22.73;;;;;;;;;;4957742;28;20069;-63
2021/11/23 05:53:40;;;;;;;86.18;21.83;;;;;;;;;;4975391;28;20034;-63
2021/11/23 05:56:07;;;;;;;61.67;19.52;;;;;;;;;;4978468;28;20035;-63
2021/11/23 05:58:33;;;;;;;57.03;19.55;;;;;;;;;;4977744;28;20040;-63
2021/11/23 06:00:59;;;;;;;71.95;22.17;;;;;;;;;;4977752;28;20038;-63
2021/11/23 06:03:25;;;;;;;74.88;21.35;;;;;;;;;;4977742;28;20046;-64
2021/11/23 06:05:51;;;;;;;82.35;22.63;;;;;;;;;;4975234;28;20041;-64
2021/11/23 06:08:17;;;;;;;90.40;23.75;;;;;;;;;;4977755;28;20062;-63
2021/11/23 06:10:43;;;;;;;67.10;20.25;;;;;;;;;;4977915;28;20058;-64
2021/11/23 06:13:11;;;;;;;81.90;23.58;;;;;;;;;;4976986;28;20039;-64
2021/11/23 06:15:38;;;;;;;55.97;18.38;;;;;;;;;;4977507;28;20502;-64
2021/11/23 06:18:04;;;;;;;58.75;20.58;;;;;;;;;;4975577;28;20145;-64
2021/11/23 06:20:30;;;;;;;92.30;24.50;;;;;;;;;;4958678;28;20042;-63
2021/11/23 06:22:56;;;;;;;50.78;18.20;;;;;;;;;;4976830;28;20030;-63
2021/11/23 06:25:23;;;;;;;66.20;22.52;;;;;;;;;;4976301;28;20041;-64
2021/11/23 06:27:48;;;;;;;62.40;22.58;;;4.30;99.90;;;;;;4975741;28;20035;-63
2021/11/23 06:30:14;;;;;;;59.55;20.92;;;;;;;;;;4975421;28;20033;-64
2021/11/23 06:32:40;;;;;;;70.90;24.13;;;4.30;99.90;;;;;;4976717;28;20133;-64
2021/11/23 06:35:05;;;;;;;69.88;22.88;;;4.40;99.90;;;;;;4976949;28;20375;-64
2021/11/23 06:37:32;;;;;;;67.97;24.33;;;;;;;;;;4976334;28;20042;-64
2021/11/23 06:39:57;;;;;;;67.68;22.65;;;4.40;99.90;;;;;;4975423;28;20030;-64
2021/11/23 06:42:23;;;;;;;71.68;24.08;;;;;;;;;;4976661;28;20667;-64
2021/11/23 06:44:49;;;;;;;72.63;23.85;;;4.40;99.90;;;;;;4976591;28;20083;-63
2021/11/23 06:47:14;;;;;;;83.88;24.13;;;4.40;99.90;;;;;;4976903;28;20030;-64
2021/11/23 06:49:40;;;;;;;69.20;22.50;;;;;;;;;;4977238;28;20062;-64
2021/11/23 06:52:07;;;;;;;81.63;25.23;;;;;;;;;;4975758;28;20026;-64
2021/11/23 06:54:33;;;;;;;81.30;24.55;;;;;;;;;;4977606;28;20031;-63
2021/11/23 06:56:59;;;;;;;84.68;24.10;;;;;;;;;;4957289;28;20042;-64
2021/11/23 06:59:25;;;;;;;85.85;26.48;;;;;;;;;;4977317;28;20027;-64
2021/11/23 07:01:51;;;;;;;87.53;25.08;;;;;;;;;;4976061;28;20048;-64
2021/11/23 07:04:17;;;;;;;85.93;24.63;;;;;;;;;;4976277;28;20027;-64
2021/11/23 07:06:45;;;;;;;99.97;27.70;;;;;;;;;;4973858;28;20030;-64
2021/11/23 07:09:11;;;;;;;97.75;28.50;;;;;;;;;;4976389;28;20714;-64
2021/11/23 07:11:37;;;;;;;101.20;29.83;;;;;;;;;;4975962;28;20038;-64
2021/11/23 07:14:06;;;;;;;101.38;29.83;;;4.70;99.90;;;;;;4975816;28;20103;-65
2021/11/23 07:16:32;;;;;;;106.53;29.20;;;;;;;;;;4976232;28;20147;-64
2021/11/23 07:18:59;;;;;;;91.07;25.52;;;4.70;99.90;;;;;;4976717;28;20031;-65
2021/11/23 07:21:25;;;;;;;97.88;25.67;;;;;;;;;;4977510;28;20030;-64
2021/11/23 07:23:50;;;;;;;95.55;26.35;;;4.80;99.90;;;;;;4978802;28;20026;-64
2021/11/23 07:26:16;;;;;;;115.00;27.77;;;;;;;;;;4977094;28;20557;-64
2021/11/23 07:28:42;;;;;;;109.40;27.48;;;4.80;99.90;;;;;;4978309;28;20084;-64
2021/11/23 07:31:08;;;;;;;104.95;26.88;;;;;;;;;;4978762;28;20038;-64
2021/11/23 07:33:34;;;;;;;100.40;25.40;;;;;;;;;;4976396;28;20043;-64
2021/11/23 07:36:00;;;;;;;114.68;27.65;;;;;;;;;;4978302;28;20034;-64
2021/11/23 07:38:26;;;;;;;126.97;31.83;;;;;;;;;;4976932;28;20041;-64
2021/11/23 07:40:53;;;;;;;136.70;32.50;;;;;;;;;;4976937;28;20074;-64
2021/11/23 07:43:19;;;;;;;101.85;26.90;;;;;;;;;;4976009;28;20034;-64
2021/11/23 07:45:45;;;;;;;91.57;25.73;;;;;;;;;;4975534;28;20109;-64
2021/11/23 07:48:10;;;;;;;114.22;28.35;;;5.10;99.90;;;;;;4975776;28;20034;-64
2021/11/23 07:50:36;;;;;;;136.05;32.67;;;;;;;;;;4976453;28;20041;-64
2021/11/23 07:53:02;;;;;;;118.68;28.83;;;;;;;;;;4975761;28;20054;-65
2021/11/23 07:55:28;;;;;;;142.77;37.95;;;;;;;;;;4975535;28;20045;-64
2021/11/23 07:57:55;;;;;;;141.10;34.15;;;;;;;;;;4975004;28;20038;-64
2021/11/23 08:00:23;;;;;;;124.15;29.83;;;;;;;;;;4978584;28;20097;-64
2021/11/23 08:02:49;;;;;;;118.40;29.30;;;;;;;;;;4975310;28;20141;-64
2021/11/23 08:05:15;;;;;;;129.15;28.15;;;;;;;;;;4976132;28;20113;-64
2021/11/23 08:07:41;;;;;;;121.30;27.42;;;;;;;;;;4976931;28;20046;-64
2021/11/23 08:10:07;;;;;;;110.88;28.08;;;;;;;;;;4976358;28;20994;-64
2021/11/23 08:12:33;;;;;;;119.65;27.42;;;;;;;;;;4977499;28;20041;-64
2021/11/23 08:15:00;;;;;;;106.85;25.67;;;;;;;;;;4977289;28;20039;-64
2021/11/23 08:17:26;;;;;;;100.63;25.50;;;;;;;;;;4976384;28;20785;-64
2021/11/23 08:19:52;;;;;;;115.65;27.98;;;;;;;;;;4977162;28;20142;-64
2021/11/23 08:22:18;;;;;;;116.07;27.45;;;;;;;;;;4976501;28;20868;-65
2021/11/23 08:24:44;;;;;;;137.27;32.72;;;;;;;;;;4975149;28;20041;-64
2021/11/23 08:27:10;;;;;;;135.10;28.88;;;;;;;;;;4975757;28;20773;-64
2021/11/23 08:29:36;;;;;;;127.90;29.27;;;;;;;;;;4958395;28;20831;-64
2021/11/23 08:32:02;;;;;;;136.27;35.63;;;;;;;;;;4958260;28;20037;-64
2021/11/23 08:34:29;;;;;;;124.78;31.67;;;;;;;;;;4976556;28;20034;-64
2021/11/23 08:36:55;;;;;;;150.25;34.55;;;;;;;;;;4975116;28;20030;-64
2021/11/23 08:39:21;;;;;;;121.20;30.58;;;;;;;;;;4975739;28;20034;-64
2021/11/23 08:41:47;;;;;;;144.90;34.90;;;;;;;;;;4974389;28;20045;-64
2021/11/23 08:44:13;;;;;;;154.35;33.00;;;;;;;;;;4975614;28;20037;-64
2021/11/23 08:46:39;;;;;;;124.38;29.65;;;;;;;;;;4974847;28;20034;-64
2021/11/23 08:49:05;;;;;;;132.85;31.83;;;;;;;;;;4975847;28;20030;-64
2021/11/23 08:51:35;;;;;;;116.63;29.65;;;;;;;;;;4976735;28;20026;-64
2021/11/23 08:54:01;;;;;;;139.07;31.08;;;;;;;;;;4975852;28;20447;-64
2021/11/23 08:56:33;;;;;;;136.45;34.58;;;;;;;;;;4975052;28;20030;-63
2021/11/23 08:59:01;;;;;;;158.23;34.33;;;;;;;;;;4974534;28;20058;-64
2021/11/23 09:01:28;;;;;;;145.77;32.60;;;;;;;;;;4969772;28;20038;-64
2021/11/23 09:03:55;;;;;;;129.07;30.65;;;;;;;;;;4974496;28;20070;-63
2021/11/23 09:06:23;;;;;;;121.80;28.85;;;;;;;;;;4974948;28;20177;-64
2021/11/23 09:08:55;;;;;;;167.18;32.15;;;;;;;;;;4972157;28;20852;-64
2021/11/23 09:11:23;;;;;;;179.55;32.60;;;;;;;;;;4975414;28;20034;-64
2021/11/23 09:13:49;;;;;;;116.47;28.98;;;;;;;;;;4956774;28;20042;-64
2021/11/23 09:16:15;;;;;;;151.32;30.48;;;;;;;;;;4975362;28;20042;-64
2021/11/23 09:18:41;;;;;;;97.95;30.15;;;;;;;;;;4974958;28;20030;-66
2021/11/23 09:21:07;;;;;;;99.82;27.90;;;;;;;;;;4974712;28;20121;-64
2021/11/23 09:23:34;;;;;;;100.18;26.33;;;;;;;;;;4974353;28;20027;-63
2021/11/23 09:26:00;;;;;;;91.63;24.17;;;;;;;;;;4974826;28;20345;-64
2021/11/23 09:28:26;;;;;;;97.25;27.60;;;;;;;;;;4974165;28;20034;-63
2021/11/23 09:30:52;;;;;;;88.25;25.35;;;;;;;;;;4976996;28;20549;-64
2021/11/23 09:33:18;;;;;;;132.85;29.95;;;;;;;;;;4977244;28;20030;-64
2021/11/23 09:35:44;;;;;;;143.48;29.85;;;;;;;;;;4978571;28;20126;-64
2021/11/23 09:38:10;;;;;;;130.70;29.88;;;;;;;;;;4975316;28;20034;-63
2021/11/23 09:40:36;;;;;;;80.60;25.42;;;5.80;99.90;;;;;;4977759;28;20050;-63
2021/11/23 09:43:03;;;;;;;79.28;27.00;;;5.90;99.90;;;;;;4976784;28;20079;-64
2021/11/23 09:45:29;;;;;;;86.18;25.98;;;6.00;99.90;;;;;;4978504;28;20056;-64
2021/11/23 09:47:55;;;;;;;94.25;25.63;;;6.20;99.90;;;;;;4977964;28;20568;-63
2021/11/23 09:50:20;;;;;;;95.18;27.95;;;6.60;99.90;;;;;;4977808;28;20064;-64
2021/11/23 09:52:46;;;;;;;86.38;25.70;;;6.10;99.90;;;;;;4959984;28;20070;-64
2021/11/23 09:55:11;;;;;;;87.38;25.70;;;6.20;99.90;;;;;;4960775;28;20054;-63
2021/11/23 09:57:37;;;;;;;87.70;24.90;;;;;;;;;;4976829;28;20034;-63
2021/11/23 10:00:04;;;;;;;80.75;24.33;;;;;;;;;;4960347;28;20038;-64
2021/11/23 10:02:36;;;;;;;77.30;24.08;;;;;;;;;;4977773;28;20079;-64
2021/11/23 10:05:03;;;;;;;96.80;26.88;;;;;;;;;;4978422;28;20041;-63
2021/11/23 10:07:29;;;;;;;83.28;25.17;;;6.00;99.90;;;;;;4977589;28;20042;-63
2021/11/23 10:09:55;;;;;;;77.82;24.70;;;;;;;;;;4960202;28;20039;-63
2021/11/23 10:12:22;;;;;;;80.85;25.88;;;;;;;;;;4977819;28;20037;-63
2021/11/23 10:14:48;;;;;;;88.47;23.85;;;;;;;;;;4976476;28;20046;-63
2021/11/23 10:17:14;;;;;;;65.40;22.42;;;;;;;;;;4978002;28;20045;-63
2021/11/23 10:19:40;;;;;;;79.40;22.63;;;;;;;;;;4961800;28;20053;-63
2021/11/23 10:22:06;;;;;;;66.00;21.88;;;;;;;;;;4975965;28;20030;-63
2021/11/23 10:24:32;;;;;;;70.95;21.33;;;;;;;;;;4976982;28;20034;-64
2021/11/23 10:26:58;;;;;;;73.57;25.92;;;;;;;;;;4976796;28;20030;-63
2021/11/23 10:29:26;;;;;;;66.07;21.35;;;;;;;;;;4976264;28;20109;-64
2021/11/23 10:31:52;;;;;;;73.93;23.75;;;;;;;;;;4977290;28;20038;-64
2021/11/23 10:34:18;;;;;;;81.07;23.48;;;;;;;;;;4976445;28;20046;-64
2021/11/23 10:36:44;;;;;;;91.63;25.38;;;;;;;;;;4976557;28;20042;-64
2021/11/23 10:39:10;;;;;;;82.68;22.58;;;;;;;;;;4976310;28;20049;-64
2021/11/23 10:41:36;;;;;;;58.33;20.25;;;;;;;;;;4975874;28;20047;-64
2021/11/23 10:44:03;;;;;;;51.22;17.77;;;;;;;;;;4976917;28;20038;-64
2021/11/23 10:46:29;;;;;;;53.25;18.75;;;;;;;;;;4976931;28;20037;-64
2021/11/23 10:48:55;;;;;;;51.40;17.38;;;;;;;;;;4975991;28;20122;-64
2021/11/23 10:51:22;;;;;;;46.15;17.70;;;;;;;;;;4977006;28;20247;-63
2021/11/23 10:53:48;;;;;;;51.38;19.00;;;;;;;;;;4975595;28;20042;-64
2021/11/23 10:56:14;;;;;;;45.05;17.27;;;;;;;;;;4958487;28;20524;-64
2021/11/23 10:58:40;;;;;;;48.83;18.08;;;;;;;;;;4976201;28;20784;-64
2021/11/23 11:01:06;;;;;;;55.40;19.42;;;;;;;;;;4975324;28;20085;-64
2021/11/23 11:03:33;;;;;;;46.63;17.73;;;;;;;;;;4976794;28;20042;-64
2021/11/23 11:05:59;;;;;;;47.33;18.05;;;;;;;;;;4976564;28;20117;-64
2021/11/23 11:08:25;;;;;;;48.42;16.98;;;;;;;;;;4974425;28;20142;-64
2021/11/23 11:10:51;;;;;;;58.88;21.70;;;;;;;;;;4976483;28;20034;-64
2021/11/23 11:13:17;;;;;;;40.47;17.30;;;;;;;;;;4974288;28;20042;-64
2021/11/23 11:15:43;;;;;;;43.17;15.75;;;;;;;;;;4975391;28;20092;-64
2021/11/23 11:18:09;;;;;;;38.03;15.82;;;;;;;;;;4957851;28;20038;-64
2021/11/23 11:20:35;;;;;;;39.97;16.83;;;;;;;;;;4974750;28;20045;-64
2021/11/23 11:23:01;;;;;;;35.60;14.25;;;;;;;;;;4974555;28;20069;-64
2021/11/23 11:25:28;;;;;;;35.10;13.63;;;;;;;;;;4978800;28;20030;-64
2021/11/23 11:27:54;;;;;;;38.10;14.68;;;;;;;;;;4976154;28;20041;-65
2021/11/23 11:30:20;;;;;;;33.55;14.43;;;;;;;;;;4958881;28;20066;-64
2021/11/23 11:32:47;;;;;;;29.25;12.00;;;;;;;;;;4978441;28;20130;-64
2021/11/23 11:35:13;;;;;;;33.80;14.30;;;;;;;;;;4979155;28;20035;-65
2021/11/23 11:37:39;;;;;;;32.60;13.45;;;;;;;;;;4978014;28;20076;-65
2021/11/23 11:40:07;;;;;;;28.73;11.20;;;;;;;;;;4959366;28;20093;-64
2021/11/23 11:42:33;;;;;;;34.35;12.27;;;;;;;;;;4977578;28;20046;-63
2021/11/23 11:44:59;;;;;;;48.17;14.00;;;;;;;;;;4975559;28;20472;-64
2021/11/23 11:47:25;;;;;;;25.23;9.68;;;;;;;;;;4975868;28;20167;-64
2021/11/23 11:49:51;;;;;;;18.70;9.43;;;8.10;99.90;;;;;;4974345;28;20034;-64
2021/11/23 11:52:16;;;;;;;21.77;9.23;;;7.50;99.90;;;;;;4956189;28;20030;-64
2021/11/23 11:54:45;;;;;;;41.58;10.82;;;;;;;;;;4974086;28;20133;-64
2021/11/23 11:57:11;;;;;;;28.98;10.15;;;;;;;;;;4957113;28;20061;-64
2021/11/23 11:59:37;;;;;;;40.83;12.40;;;;;;;;;;4973367;28;20778;-64
2021/11/23 12:02:05;;;;;;;46.90;13.52;;;;;;;;;;4973348;28;20585;-63
2021/11/23 12:04:34;;;;;;;35.78;12.88;;;;;;;;;;4975015;28;20045;-64
2021/11/23 12:07:03;;;;;;;32.60;11.73;;;;;;;;;;4975762;28;20030;-64
2021/11/23 12:09:29;;;;;;;41.58;12.90;;;;;;;;;;4976628;28;20151;-64
2021/11/23 12:11:55;;;;;;;53.60;14.70;;;;;;;;;;4975563;28;20109;-64
2021/11/23 12:14:21;;;;;;;56.53;14.35;;;;;;;;;;4976855;28;20091;-63
2021/11/23 12:16:47;;;;;;;47.13;12.88;;;;;;;;;;4977010;28;20425;-63
2021/11/23 12:19:14;;;;;;;52.67;13.75;;;;;;;;;;4977085;28;20365;-64
2021/11/23 12:21:40;;;;;;;48.92;13.45;;;;;;;;;;4976819;28;20535;-63
2021/11/23 12:24:06;;;;;;;57.70;13.57;;;;;;;;;;4976705;28;20406;-63
2021/11/23 12:26:34;;;;;;;56.50;14.45;;;;;;;;;;4976814;28;20034;-63
2021/11/23 12:29:00;;;;;;;52.03;14.10;;;;;;;;;;4976234;28;20049;-63
2021/11/23 12:31:26;;;;;;;44.28;14.07;;;;;;;;;;4976099;28;20038;-63
2021/11/23 12:33:52;;;;;;;45.13;15.18;;;;;;;;;;4975338;28;20434;-63
2021/11/23 12:36:19;;;;;;;45.75;14.65;;;;;;;;;;4976507;28;20036;-63
2021/11/23 12:38:45;;;;;;;49.50;16.83;;;;;;;;;;4958034;28;20037;-63
2021/11/23 12:41:12;;;;;;;45.38;15.27;;;;;;;;;;4977044;28;20042;-63
2021/11/23 12:43:38;;;;;;;49.60;15.50;;;;;;;;;;4976304;28;20024;-63
2021/11/23 12:46:04;;;;;;;54.35;16.85;;;;;;;;;;4979601;28;20540;-63
2021/11/23 12:48:30;;;;;;;50.00;16.45;;;;;;;;;;4975676;28;20104;-63
2021/11/23 12:50:56;;;;;;;45.17;15.27;;;;;;;;;;4975763;28;20050;-63
2021/11/23 12:53:22;;;;;;;57.42;17.02;;;;;;;;;;4975388;28;20937;-63
2021/11/23 12:55:48;;;;;;;71.30;17.45;;;;;;;;;;4975389;28;20034;-63
2021/11/23 12:58:14;;;;;;;67.40;17.33;;;;;;;;;;4975735;28;20044;-63
2021/11/23 13:00:40;;;;;;;71.13;16.27;;;;;;;;;;4974802;28;20038;-63
2021/11/23 13:03:06;;;;;;;93.20;18.75;;;;;;;;;;4975269;28;20035;-64
2021/11/23 13:05:34;;;;;;;126.03;20.52;;;;;;;;;;4978114;28;20026;-63
2021/11/23 13:08:10;;;;;;;123.88;19.23;;;;;;;;;;4977410;28;20031;-63
2021/11/23 13:10:36;;;;;;;;;;;;;;;;;;4979372;28;20057;-63
2021/11/23 13:13:02;;;;;;;139.93;21.25;;;;;;;;;;4978887;28;19981;-63
2021/11/23 13:15:28;;;;;;;150.82;20.65;;;;;;;;;;4978567;28;20026;-63
2021/11/23 13:17:54;;;;;;;131.65;20.08;;;;;;;;;;4978766;28;20065;-63
2021/11/23 13:20:20;;;;;;;139.23;19.48;;;;;;;;;;4978431;28;20042;-64
2021/11/23 13:22:47;;;;;;;139.10;20.02;;;;;;;;;;4960878;28;20084;-63
2021/11/23 13:25:13;;;;;;;145.35;20.67;;;;;;;;;;4978824;28;20039;-63
2021/11/23 13:27:39;;;;;;;129.00;19.13;;;;;;;;;;4955825;28;20182;-63
2021/11/23 13:30:06;;;;;;;150.90;21.77;;;;;;;;;;4977827;28;20121;-63
2021/11/23 13:32:32;;;;;;;125.72;18.60;;;;;;;;;;4960327;28;20053;-63
2021/11/23 13:34:58;;;;;;;138.02;18.88;;;;;;;;;;4978408;28;20065;-63
2021/11/23 13:37:24;;;;;;;120.72;17.70;;;;;;;;;;4977498;28;20042;-63
2021/11/23 13:39:51;;;;;;;134.57;18.70;;;;;;;;;;4978726;28;20046;-63
2021/11/23 13:42:17;;;;;;;92.47;15.50;;;;;;;;;;4978518;28;20045;-63